createdAt,value
2018-07-22T00:01:25.048Z,16.93
2018-07-22T00:03:54.213Z,17.60
2018-07-22T00:06:23.589Z,17.90
2018-07-22T00:08:52.864Z,16.87
2018-07-22T00:11:22.066Z,16.45
2018-07-22T00:13:51.335Z,16.53
2018-07-22T00:16:20.538Z,18.00
2018-07-22T00:18:49.755Z,17.40
2018-07-22T00:21:19.062Z,17.00
2018-07-22T00:23:48.221Z,16.60
2018-07-22T00:26:17.384Z,17.73
2018-07-22T00:28:46.578Z,17.50
2018-07-22T00:31:15.818Z,18.25
2018-07-22T00:33:44.981Z,17.67
2018-07-22T00:36:14.178Z,17.37
2018-07-22T00:38:43.411Z,16.93
2018-07-22T00:41:12.593Z,17.23
2018-07-22T00:43:41.815Z,16.77
2018-07-22T00:46:11.078Z,16.62
2018-07-22T00:48:40.224Z,15.17
2018-07-22T00:51:09.577Z,16.70
2018-07-22T00:53:38.743Z,14.33
2018-07-22T00:56:07.920Z,15.50
2018-07-22T00:58:37.112Z,15.28
2018-07-22T01:01:08.026Z,14.10
2018-07-22T01:03:37.321Z,13.87
2018-07-22T01:06:06.513Z,14.80
2018-07-22T01:08:35.688Z,14.77
2018-07-22T01:11:04.923Z,14.37
2018-07-22T01:13:34.207Z,13.70
2018-07-22T01:16:03.394Z,14.53
2018-07-22T01:18:32.578Z,14.73
2018-07-22T01:21:01.738Z,15.00
2018-07-22T01:23:30.896Z,14.17
2018-07-22T01:26:00.106Z,14.80
2018-07-22T01:28:29.281Z,14.77
2018-07-22T01:30:58.646Z,14.03
2018-07-22T01:33:27.845Z,12.73
2018-07-22T01:35:57.006Z,13.70
2018-07-22T01:38:26.197Z,14.90
2018-07-22T01:40:55.403Z,14.60
2018-07-22T01:43:24.954Z,14.80
2018-07-22T01:45:54.370Z,15.72
2018-07-22T01:48:23.552Z,13.10
2018-07-22T01:50:52.714Z,14.13
2018-07-22T01:53:21.920Z,13.73
2018-07-22T01:55:51.069Z,13.37
2018-07-22T01:58:20.265Z,13.07
2018-07-22T02:00:49.418Z,13.53
2018-07-22T02:03:18.602Z,13.80
2018-07-22T02:05:47.799Z,13.87
2018-07-22T02:08:16.952Z,12.50
2018-07-22T02:10:46.161Z,13.00
2018-07-22T02:13:15.324Z,12.90
2018-07-22T02:15:44.482Z,12.87
2018-07-22T02:18:13.734Z,13.27
2018-07-22T02:20:42.947Z,12.63
2018-07-22T02:23:12.744Z,12.90
2018-07-22T02:25:41.888Z,13.00
2018-07-22T02:28:11.090Z,11.77
2018-07-22T02:30:40.239Z,11.40
2018-07-22T02:33:09.454Z,9.50
2018-07-22T02:35:38.998Z,8.90
2018-07-22T02:38:08.231Z,8.47
2018-07-22T02:40:37.378Z,8.00
2018-07-22T02:43:06.812Z,7.28
2018-07-22T02:45:36.001Z,7.13
2018-07-22T02:48:05.163Z,7.30
2018-07-22T02:50:34.337Z,7.30
2018-07-22T02:53:03.470Z,7.20
2018-07-22T02:55:32.613Z,8.27
2018-07-22T02:58:01.777Z,8.00
2018-07-22T03:00:31.791Z,8.00
2018-07-22T03:03:00.918Z,7.80
2018-07-22T03:05:30.077Z,7.80
2018-07-22T03:07:59.225Z,8.07
2018-07-22T03:10:28.371Z,7.90
2018-07-22T03:12:57.524Z,8.30
2018-07-22T03:15:26.674Z,7.90
2018-07-22T03:17:55.865Z,6.80
2018-07-22T03:20:25.039Z,7.80
2018-07-22T03:22:54.221Z,6.97
2018-07-22T03:25:23.376Z,6.70
2018-07-22T03:27:52.538Z,7.20
2018-07-22T03:30:21.686Z,7.20
2018-07-22T03:32:50.827Z,7.17
2018-07-22T03:35:20.007Z,6.73
2018-07-22T03:37:49.122Z,6.60
2018-07-22T03:40:18.222Z,7.23
2018-07-22T03:42:47.380Z,6.60
2018-07-22T03:45:16.509Z,5.80
2018-07-22T03:47:45.673Z,7.13
2018-07-22T03:50:14.886Z,6.70
2018-07-22T03:52:44.001Z,6.50
2018-07-22T03:55:13.136Z,7.00
2018-07-22T03:57:43.893Z,6.33
2018-07-22T04:00:13.765Z,6.80
2018-07-22T04:02:42.888Z,7.77
2018-07-22T04:05:12.046Z,7.10
2018-07-22T04:07:41.189Z,7.13
2018-07-22T04:10:10.362Z,7.17
2018-07-22T04:12:40.149Z,7.30
2018-07-22T04:15:09.504Z,7.37
2018-07-22T04:17:38.624Z,6.70
2018-07-22T04:20:07.810Z,6.50
2018-07-22T04:22:36.921Z,6.80
2018-07-22T04:25:06.149Z,6.80
2018-07-22T04:27:35.348Z,7.30
2018-07-22T04:30:04.906Z,7.00
2018-07-22T04:32:34.016Z,6.23
2018-07-22T04:35:03.265Z,7.37
2018-07-22T04:37:32.397Z,7.30
2018-07-22T04:40:01.552Z,6.20
2018-07-22T04:42:30.850Z,7.33
2018-07-22T04:44:59.973Z,6.27
2018-07-22T04:47:29.116Z,6.20
2018-07-22T04:49:58.269Z,6.63
2018-07-22T04:52:27.413Z,6.47
2018-07-22T04:54:56.813Z,6.33
2018-07-22T04:57:25.998Z,6.50
2018-07-22T04:59:55.113Z,6.80
2018-07-22T05:02:24.291Z,6.30
2018-07-22T05:04:53.545Z,5.53
2018-07-22T05:07:22.664Z,6.50
2018-07-22T05:09:51.802Z,6.20
2018-07-22T05:12:20.980Z,6.03
2018-07-22T05:14:50.079Z,5.80
2018-07-22T05:17:19.213Z,6.50
2018-07-22T05:19:48.366Z,5.60
2018-07-22T05:22:17.503Z,5.20
2018-07-22T05:24:46.626Z,5.83
2018-07-22T05:27:15.781Z,4.70
2018-07-22T05:29:44.909Z,6.40
2018-07-22T05:32:14.044Z,4.80
2018-07-22T05:34:43.217Z,5.85
2018-07-22T05:37:12.308Z,5.30
2018-07-22T05:39:41.420Z,5.10
2018-07-22T05:42:10.624Z,4.57
2018-07-22T05:44:39.685Z,4.80
2018-07-22T05:47:08.991Z,4.57
2018-07-22T05:49:38.140Z,4.83
2018-07-22T05:52:07.303Z,4.33
2018-07-22T05:54:36.428Z,5.15
2018-07-22T05:57:05.703Z,4.63
2018-07-22T05:59:35.018Z,5.10
2018-07-22T06:02:04.170Z,5.67
2018-07-22T06:04:33.320Z,5.77
2018-07-22T06:07:02.457Z,6.00
2018-07-22T06:09:31.705Z,6.20
2018-07-22T06:12:01.228Z,6.83
2018-07-22T06:14:31.330Z,7.17
2018-07-22T06:17:00.524Z,7.57
2018-07-22T06:19:29.725Z,6.95
2018-07-22T06:21:59.229Z,7.90
2018-07-22T06:24:28.430Z,7.27
2018-07-22T06:26:57.592Z,8.10
2018-07-22T06:29:26.790Z,8.88
2018-07-22T06:31:55.987Z,9.50
2018-07-22T06:34:25.139Z,8.87
2018-07-22T06:36:54.288Z,9.20
2018-07-22T06:39:23.442Z,8.53
2018-07-22T06:41:52.641Z,8.83
2018-07-22T06:44:21.992Z,9.00
2018-07-22T06:46:51.205Z,9.50
2018-07-22T06:49:20.379Z,9.35
2018-07-22T06:51:49.562Z,9.70
2018-07-22T06:54:18.824Z,9.20
2018-07-22T06:56:48.002Z,10.13
2018-07-22T06:59:17.157Z,10.57
2018-07-22T07:01:46.321Z,11.30
2018-07-22T07:04:15.501Z,13.70
2018-07-22T07:06:44.691Z,12.37
2018-07-22T07:09:13.866Z,14.47
2018-07-22T07:11:43.083Z,13.00
2018-07-22T07:14:12.362Z,12.57
2018-07-22T07:16:41.601Z,13.25
2018-07-22T07:19:11.400Z,12.13
2018-07-22T07:21:40.598Z,11.50
2018-07-22T07:24:09.773Z,9.40
2018-07-22T07:26:39.011Z,6.90
2018-07-22T07:29:08.231Z,6.30
2018-07-22T07:31:38.801Z,6.40
2018-07-22T07:34:08.177Z,6.37
2018-07-22T07:36:37.367Z,6.40
2018-07-22T07:39:09.259Z,6.90
2018-07-22T07:41:38.778Z,5.93
2018-07-22T07:44:07.977Z,6.00
2018-07-22T07:46:37.185Z,5.90
2018-07-22T07:49:06.488Z,5.00
2018-07-22T07:51:35.655Z,5.00
2018-07-22T07:54:04.846Z,6.03
2018-07-22T07:56:34.007Z,6.50
2018-07-22T07:59:03.191Z,6.60
2018-07-22T08:01:32.433Z,6.83
2018-07-22T08:04:01.631Z,7.40
2018-07-22T08:06:30.828Z,7.07
2018-07-22T08:09:00.025Z,7.70
2018-07-22T08:11:29.220Z,7.87
2018-07-22T08:13:58.401Z,7.23
2018-07-22T08:16:27.549Z,7.97
2018-07-22T08:18:56.848Z,7.43
2018-07-22T08:21:26.478Z,7.87
2018-07-22T08:23:55.172Z,8.97
2018-07-22T08:26:24.349Z,8.13
2018-07-22T08:29:30.286Z,10.10
2018-07-22T08:31:59.933Z,8.40
2018-07-22T08:34:29.257Z,9.70
2018-07-22T08:36:58.524Z,9.60
2018-07-22T08:39:28.900Z,9.60
2018-07-22T08:41:58.704Z,10.17
2018-07-22T08:44:27.909Z,8.70
2018-07-22T08:46:57.068Z,10.57
2018-07-22T08:49:26.228Z,11.88
2018-07-22T08:51:55.472Z,13.17
2018-07-22T08:54:24.738Z,13.50
2018-07-22T08:56:53.932Z,15.73
2018-07-22T08:59:23.146Z,16.27
2018-07-22T09:01:52.361Z,17.87
2018-07-22T09:04:21.635Z,16.37
2018-07-22T09:06:50.838Z,17.23
2018-07-22T09:09:20.042Z,17.95
2018-07-22T09:11:49.297Z,14.70
2018-07-22T09:14:18.471Z,14.73
2018-07-22T09:16:47.669Z,14.93
2018-07-22T09:19:16.873Z,15.03
2018-07-22T09:21:46.136Z,14.73
2018-07-22T09:24:15.348Z,13.97
2018-07-22T09:26:44.549Z,14.60
2018-07-22T09:29:13.797Z,16.27
2018-07-22T09:31:43.024Z,16.47
2018-07-22T09:34:12.193Z,16.20
2018-07-22T09:36:41.442Z,15.37
2018-07-22T09:39:12.116Z,13.60
2018-07-22T09:41:41.429Z,12.00
2018-07-22T09:44:10.672Z,13.80
2018-07-22T09:46:39.948Z,13.03
2018-07-22T09:49:09.235Z,14.33
2018-07-22T09:51:38.515Z,13.72
2018-07-22T09:54:07.693Z,13.87
2018-07-22T09:56:36.855Z,14.20
2018-07-22T09:59:06.110Z,15.87
2018-07-22T10:01:35.255Z,14.03
2018-07-22T10:04:04.588Z,17.87
2018-07-22T10:06:33.775Z,15.03
2018-07-22T10:09:02.952Z,15.07
2018-07-22T10:11:32.204Z,14.43
2018-07-22T10:14:01.374Z,14.57
2018-07-22T10:16:30.516Z,16.30
2018-07-22T10:18:59.716Z,16.20
2018-07-22T10:21:28.857Z,15.75
2018-07-22T10:23:58.042Z,16.47
2018-07-22T10:26:27.270Z,17.20
2018-07-22T10:28:56.462Z,17.60
2018-07-22T10:31:25.603Z,18.60
2018-07-22T10:33:54.840Z,17.67
2018-07-22T10:36:24.028Z,17.50
2018-07-22T10:38:53.249Z,18.53
2018-07-22T10:41:22.438Z,19.48
2018-07-22T10:43:51.634Z,18.30
2018-07-22T10:46:20.793Z,17.90
2018-07-22T10:48:49.989Z,17.63
2018-07-22T10:51:19.161Z,18.00
2018-07-22T10:53:48.334Z,18.90
2018-07-22T10:56:17.498Z,21.02
2018-07-22T10:58:46.728Z,19.00
2018-07-22T11:01:16.716Z,19.63
2018-07-22T11:03:45.915Z,21.13
2018-07-22T11:06:15.138Z,20.33
2018-07-22T11:08:44.332Z,21.67
2018-07-22T11:11:13.523Z,21.10
2018-07-22T11:13:43.895Z,20.43
2018-07-22T11:16:13.064Z,20.70
2018-07-22T11:18:42.282Z,20.73
2018-07-22T11:21:11.559Z,21.17
2018-07-22T11:23:40.737Z,21.13
2018-07-22T11:26:09.909Z,19.57
2018-07-22T11:28:39.132Z,20.07
2018-07-22T11:31:08.357Z,19.77
2018-07-22T11:33:37.539Z,19.43
2018-07-22T11:36:06.787Z,20.03
2018-07-22T11:38:35.932Z,20.60
2018-07-22T11:41:05.095Z,20.23
2018-07-22T11:43:34.293Z,18.83
2018-07-22T11:46:03.504Z,19.27
2018-07-22T11:48:32.704Z,19.10
2018-07-22T11:51:01.897Z,23.03
2018-07-22T11:53:31.059Z,21.33
2018-07-22T11:56:00.325Z,19.47
2018-07-22T11:58:29.530Z,20.57
2018-07-22T12:00:58.720Z,21.47
2018-07-22T12:03:27.935Z,21.67
2018-07-22T12:05:57.173Z,22.73
2018-07-22T12:08:26.338Z,22.70
2018-07-22T12:10:55.527Z,24.50
2018-07-22T12:13:24.744Z,25.50
2018-07-22T12:15:53.912Z,24.43
2018-07-22T12:18:23.146Z,26.70
2018-07-22T12:20:52.424Z,25.47
2018-07-22T12:23:21.593Z,25.40
2018-07-22T12:25:50.909Z,25.43
2018-07-22T12:28:20.102Z,26.07
2018-07-22T12:30:49.269Z,27.13
2018-07-22T12:33:18.652Z,26.10
2018-07-22T12:35:47.857Z,25.97
2018-07-22T12:38:17.018Z,28.37
2018-07-22T12:40:46.243Z,28.57
2018-07-22T12:43:15.608Z,26.65
2018-07-22T12:45:44.805Z,28.00
2018-07-22T12:48:14.026Z,27.77
2018-07-22T12:50:43.238Z,28.63
2018-07-22T12:53:12.702Z,28.53
2018-07-22T12:55:41.902Z,29.83
2018-07-22T12:58:11.128Z,30.87
2018-07-22T13:00:40.283Z,29.33
2018-07-22T13:03:09.569Z,31.73
2018-07-22T13:05:38.786Z,28.20
2018-07-22T13:08:08.063Z,30.93
2018-07-22T13:10:37.227Z,31.07
2018-07-22T13:13:06.723Z,33.10
2018-07-22T13:15:35.876Z,33.53
2018-07-22T13:18:05.145Z,32.77
2018-07-22T13:20:34.673Z,33.80
2018-07-22T13:23:03.917Z,32.93
2018-07-22T13:25:33.132Z,35.27
2018-07-22T13:28:02.344Z,35.00
2018-07-22T13:30:31.538Z,34.10
2018-07-22T13:33:00.710Z,34.17
2018-07-22T13:35:29.965Z,32.47
2018-07-22T13:37:59.174Z,32.78
2018-07-22T13:40:28.338Z,34.40
2018-07-22T13:42:57.533Z,35.90
2018-07-22T13:45:26.820Z,36.23
2018-07-22T13:47:55.995Z,34.77
2018-07-22T13:50:25.208Z,37.17
2018-07-22T13:52:54.414Z,36.80
2018-07-22T13:55:23.660Z,38.13
2018-07-22T13:57:52.929Z,35.63
2018-07-22T14:00:22.131Z,37.03
2018-07-22T14:02:51.282Z,37.50
2018-07-22T14:05:20.504Z,38.08
2018-07-22T14:07:49.692Z,37.07
2018-07-22T14:10:19.136Z,37.00
2018-07-22T14:12:48.373Z,38.78
2018-07-22T14:15:17.565Z,39.40
2018-07-22T14:17:46.860Z,38.63
2018-07-22T14:20:16.004Z,38.80
2018-07-22T14:22:45.988Z,36.20
2018-07-22T14:25:15.133Z,34.85
2018-07-22T14:27:44.376Z,37.97
2018-07-22T14:30:14.323Z,36.40
2018-07-22T14:32:43.522Z,36.00
2018-07-22T14:35:12.948Z,37.90
2018-07-22T14:37:42.079Z,35.63
2018-07-22T14:40:11.253Z,36.67
2018-07-22T14:42:40.461Z,34.60
2018-07-22T14:45:10.042Z,33.90
2018-07-22T14:47:39.213Z,33.10
2018-07-22T14:50:08.452Z,31.50
2018-07-22T14:52:37.635Z,31.80
2018-07-22T14:55:06.958Z,33.50
2018-07-22T14:57:36.146Z,32.90
2018-07-22T15:00:05.802Z,33.97
2018-07-22T15:02:34.984Z,33.67
2018-07-22T15:05:04.220Z,31.63
2018-07-22T15:07:33.366Z,33.77
2018-07-22T15:10:02.586Z,34.47
2018-07-22T15:12:31.776Z,34.40
2018-07-22T15:15:00.960Z,36.57
2018-07-22T15:17:30.149Z,31.67
2018-07-22T15:19:59.325Z,33.85
2018-07-22T15:22:28.590Z,34.43
2018-07-22T15:24:57.798Z,35.63
2018-07-22T15:27:27.000Z,35.23
2018-07-22T15:29:56.165Z,33.60
2018-07-22T15:32:25.339Z,36.00
2018-07-22T15:34:54.539Z,38.25
2018-07-22T15:37:23.752Z,39.15
2018-07-22T15:39:52.896Z,41.13
2018-07-22T15:42:22.107Z,37.33
2018-07-22T15:44:51.253Z,37.10
2018-07-22T15:47:20.466Z,38.40
2018-07-22T15:49:49.634Z,38.27
2018-07-22T15:52:18.794Z,38.40
2018-07-22T15:54:47.954Z,37.90
2018-07-22T15:57:17.169Z,38.30
2018-07-22T15:59:46.509Z,39.00
2018-07-22T16:02:15.750Z,41.27
2018-07-22T16:04:44.905Z,40.97
2018-07-22T16:07:14.053Z,42.20
2018-07-22T16:09:43.197Z,40.20
2018-07-22T16:12:12.398Z,40.57
2018-07-22T16:14:41.540Z,40.20
2018-07-22T16:17:10.745Z,37.93
2018-07-22T16:19:39.996Z,37.00
2018-07-22T16:22:09.249Z,37.87
2018-07-22T16:24:38.529Z,39.57
2018-07-22T16:27:07.958Z,39.90
2018-07-22T16:29:37.196Z,39.00
2018-07-22T16:32:06.404Z,38.67
2018-07-22T16:34:35.609Z,37.87
2018-07-22T16:37:04.757Z,39.70
2018-07-22T16:39:33.963Z,36.47
2018-07-22T16:42:03.191Z,37.60
2018-07-22T16:44:32.349Z,38.93
2018-07-22T16:47:01.729Z,39.65
2018-07-22T16:49:30.894Z,40.07
2018-07-22T16:52:00.126Z,38.00
2018-07-22T16:54:29.263Z,39.23
2018-07-22T16:56:58.429Z,37.50
2018-07-22T16:59:27.645Z,39.00
2018-07-22T17:01:56.817Z,39.90
2018-07-22T17:04:26.010Z,39.50
2018-07-22T17:06:55.199Z,38.20
2018-07-22T17:09:24.381Z,39.90
2018-07-22T17:11:53.546Z,40.40
2018-07-22T17:14:22.742Z,41.00
2018-07-22T17:16:51.932Z,40.47
2018-07-22T17:19:21.210Z,42.08
2018-07-22T17:21:50.500Z,41.30
2018-07-22T17:24:19.661Z,39.17
2018-07-22T17:26:48.898Z,38.90
2018-07-22T17:29:18.046Z,40.20
2018-07-22T17:31:48.150Z,39.87
2018-07-22T17:34:17.319Z,41.83
2018-07-22T17:36:46.493Z,39.33
2018-07-22T17:39:15.649Z,41.40
2018-07-22T17:41:44.814Z,38.23
2018-07-22T17:44:14.093Z,37.60
2018-07-22T17:46:43.274Z,40.52
2018-07-22T17:49:12.491Z,38.10
2018-07-22T17:51:41.687Z,39.93
2018-07-22T17:54:10.890Z,38.77
2018-07-22T17:56:40.082Z,37.10
2018-07-22T17:59:09.287Z,37.73
2018-07-22T18:01:38.461Z,36.97
2018-07-22T18:04:07.667Z,38.43
2018-07-22T18:06:36.846Z,34.63
2018-07-22T18:09:09.391Z,37.17
2018-07-22T18:11:38.769Z,37.40
2018-07-22T18:14:08.026Z,38.00
2018-07-22T18:16:37.214Z,36.57
2018-07-22T18:19:06.507Z,39.20
2018-07-22T18:21:35.856Z,39.03
2018-07-22T18:24:05.353Z,37.90
2018-07-22T18:26:34.547Z,36.77
2018-07-22T18:29:03.729Z,36.93
2018-07-22T18:31:32.942Z,36.00
2018-07-22T18:34:02.188Z,37.43
2018-07-22T18:36:31.314Z,37.00
2018-07-22T18:39:00.513Z,36.20
2018-07-22T18:41:29.700Z,34.23
2018-07-22T18:43:58.843Z,34.33
2018-07-22T18:46:28.022Z,35.80
2018-07-22T18:48:57.530Z,35.53
2018-07-22T18:51:26.813Z,33.43
2018-07-22T18:53:56.521Z,32.27
2018-07-22T18:56:25.674Z,33.93
2018-07-22T18:58:54.956Z,34.17
2018-07-22T19:01:24.181Z,33.13
2018-07-22T19:03:53.457Z,33.00
2018-07-22T19:06:22.682Z,34.48
2018-07-22T19:08:51.902Z,33.27
2018-07-22T19:11:21.060Z,33.30
2018-07-22T19:13:50.333Z,32.27
2018-07-22T19:16:19.537Z,32.97
2018-07-22T19:18:48.747Z,33.03
2018-07-22T19:21:17.934Z,35.13
2018-07-22T19:23:47.123Z,32.40
2018-07-22T19:26:16.353Z,32.07
2018-07-22T19:28:45.578Z,34.60
2018-07-22T19:31:14.806Z,33.00
2018-07-22T19:33:43.948Z,32.40
2018-07-22T19:36:13.142Z,32.47
2018-07-22T19:38:42.411Z,32.17
2018-07-22T19:41:11.597Z,31.77
2018-07-22T19:43:40.807Z,32.87
2018-07-22T19:46:09.999Z,29.37
2018-07-22T19:48:39.166Z,30.17
2018-07-22T19:51:08.567Z,28.97
2018-07-22T19:53:39.386Z,29.42
2018-07-22T19:56:08.555Z,27.43
2018-07-22T19:58:37.732Z,27.07
2018-07-22T20:01:07.133Z,26.70
2018-07-22T20:03:36.324Z,26.53
2018-07-22T20:06:05.629Z,23.80
2018-07-22T20:08:34.872Z,24.13
2018-07-22T20:11:04.075Z,23.10
2018-07-22T20:13:33.261Z,22.17
2018-07-22T20:16:02.433Z,19.10
2018-07-22T20:18:32.403Z,19.30
2018-07-22T20:21:01.598Z,19.27
2018-07-22T20:23:30.777Z,20.20
2018-07-22T20:25:59.946Z,22.10
2018-07-22T20:28:29.155Z,20.90
2018-07-22T20:30:58.376Z,21.97
2018-07-22T20:33:27.576Z,21.57
2018-07-22T20:35:56.749Z,21.00
2018-07-22T20:38:25.949Z,20.80
2018-07-22T20:40:55.133Z,20.10
2018-07-22T20:43:24.330Z,21.77
2018-07-22T20:45:53.540Z,20.87
2018-07-22T20:48:22.728Z,21.42
2018-07-22T20:50:52.117Z,20.67
2018-07-22T20:53:21.325Z,22.42
2018-07-22T20:55:50.472Z,20.67
2018-07-22T20:58:19.640Z,19.50
2018-07-22T21:00:48.845Z,23.07
2018-07-22T21:03:17.977Z,20.60
2018-07-22T21:05:47.147Z,20.00
2018-07-22T21:08:16.313Z,19.17
2018-07-22T21:10:45.458Z,18.70
2018-07-22T21:13:20.529Z,17.87
2018-07-22T21:15:50.028Z,17.82
2018-07-22T21:18:19.194Z,18.40
2018-07-22T21:20:48.406Z,17.40
2018-07-22T21:23:17.609Z,19.27
2018-07-22T21:25:46.755Z,17.70
2018-07-22T21:28:15.936Z,18.03
2018-07-22T21:30:45.250Z,16.70
2018-07-22T21:33:14.489Z,15.85
2018-07-22T21:35:43.651Z,15.50
2018-07-22T21:38:12.809Z,16.20
2018-07-22T21:40:41.964Z,16.03
2018-07-22T21:43:11.189Z,15.73
2018-07-22T21:45:40.344Z,16.43
2018-07-22T21:48:09.540Z,16.10
2018-07-22T21:50:38.695Z,17.57
2018-07-22T21:53:08.123Z,15.70
2018-07-22T21:55:37.262Z,15.57
2018-07-22T21:58:06.480Z,15.80
2018-07-22T22:00:40.807Z,16.97
2018-07-22T22:03:10.018Z,17.70
2018-07-22T22:05:39.343Z,17.20
2018-07-22T22:08:08.513Z,17.37
2018-07-22T22:10:37.653Z,17.13
2018-07-22T22:13:07.832Z,17.90
2018-07-22T22:15:38.399Z,17.97
2018-07-22T22:18:07.686Z,16.00
2018-07-22T22:20:36.805Z,17.83
2018-07-22T22:23:06.055Z,18.65
2018-07-22T22:25:35.347Z,16.87
2018-07-22T22:28:04.490Z,18.57
2018-07-22T22:30:33.740Z,18.57
2018-07-22T22:33:02.909Z,18.23
2018-07-22T22:35:32.043Z,18.90
2018-07-22T22:38:01.198Z,17.07
2018-07-22T22:40:30.352Z,20.00
2018-07-22T22:42:59.492Z,18.10
2018-07-22T22:45:28.670Z,17.70
2018-07-22T22:47:57.885Z,18.90
2018-07-22T22:50:27.058Z,18.92
2018-07-22T22:52:56.293Z,17.83
2018-07-22T22:55:25.456Z,18.62
2018-07-22T22:58:05.774Z,19.03
2018-07-22T23:00:35.014Z,22.47
2018-07-22T23:03:04.249Z,21.33
2018-07-22T23:05:33.483Z,20.77
2018-07-22T23:08:02.632Z,21.52
2018-07-22T23:10:31.817Z,20.53
2018-07-22T23:13:00.993Z,21.30
2018-07-22T23:15:30.157Z,21.33
2018-07-22T23:17:59.411Z,20.00
2018-07-22T23:20:28.574Z,19.50
2018-07-22T23:22:57.780Z,20.85
2018-07-22T23:25:26.923Z,21.23
2018-07-22T23:27:56.104Z,22.60
2018-07-22T23:30:25.288Z,20.90
2018-07-22T23:32:54.469Z,22.57
2018-07-22T23:35:23.641Z,21.07
2018-07-22T23:37:52.864Z,21.90
2018-07-22T23:40:22.128Z,23.50
2018-07-22T23:42:51.343Z,21.90
2018-07-22T23:45:20.506Z,21.48
2018-07-22T23:47:49.671Z,22.10
2018-07-22T23:50:18.836Z,20.10
2018-07-22T23:52:48.672Z,22.40
2018-07-22T23:55:17.832Z,21.53
2018-07-22T23:57:47.012Z,24.73
